Time;durP1;ratioP1;P1;durP2;ratioP2;P2;SDS_P1;SDS_P2;PMS_P1;PMS_P2;Temp;Humidity;BMP_temperature;BMP_pressure;BME280_temperature;BME280_humidity;BME280_pressure;Samples;Min_cycle;Max_cycle;Signal;HPM_P1;HPM_P2
2020/12/29 00:00:10;;;;;;;15.50;13.90;;;4.30;99.90;;;;;;6204361;23;20442;-85
2020/12/29 00:02:37;;;;;;;15.67;14.07;;;4.30;99.90;;;;;;6206916;23;20410;-84
2020/12/29 00:05:04;;;;;;;15.53;14.03;;;4.30;99.90;;;;;;6207619;23;20411;-84
2020/12/29 00:07:32;;;;;;;14.23;12.83;;;4.20;99.90;;;;;;6208280;23;20415;-85
2020/12/29 00:09:59;;;;;;;15.97;14.07;;;4.20;99.90;;;;;;6208373;23;20422;-85
2020/12/29 00:12:26;;;;;;;16.53;14.90;;;4.20;99.90;;;;;;6208117;23;20418;-85
2020/12/29 00:14:53;;;;;;;16.20;14.53;;;4.20;99.90;;;;;;6209394;23;20421;-84
2020/12/29 00:17:21;;;;;;;16.37;14.00;;;4.20;99.90;;;;;;6209970;23;20453;-85
2020/12/29 00:19:49;;;;;;;17.33;15.53;;;4.20;99.90;;;;;;6207134;23;20453;-84
2020/12/29 00:22:31;;;;;;;;;;;;;;;;;;;;;
2020/12/29 00:25:37;;;;;;;18.03;16.13;;;4.20;99.90;;;;;;6195192;23;20418;-88
2020/12/29 00:29:00;;;;;;;17.73;15.90;;;4.20;99.90;;;;;;6196412;23;20476;-88
2020/12/29 00:32:26;;;;;;;;;;;;;;;;;;;;;
2020/12/29 00:35:46;;;;;;;;;;;;;;;;;;;;;
2020/12/29 00:43:31;;;;;;;;;;;;;;;;;;;;;
2020/12/29 01:23:37;;;;;;;;;;;;;;;;;;;;;
2020/12/29 01:37:00;;;;;;;;;;;;;;;;;;;;;
2020/12/29 01:39:57;;;;;;;23.27;20.30;;;4.00;99.90;;;;;;5954195;23;20438;-88
2020/12/29 01:46:51;;;;;;;;;;;;;;;;;;;;;
2020/12/29 01:54:51;;;;;;;;;;;;;;;;;;;;;
2020/12/29 03:15:51;;;;;;;;;;;;;;;;;;;;;
2020/12/29 03:35:20;;;;;;;;;;;;;;;;;;;;;
2020/12/29 03:56:00;;;;;;;22.37;20.03;;;4.10;99.90;;;;;;5892067;24;20230;-88
2020/12/29 03:58:45;;;;;;;22.50;20.10;;;4.20;99.90;;;;;;6103633;23;20453;-88
2020/12/29 04:13:16;;;;;;;24.70;22.00;;;4.10;99.90;;;;;;5894896;23;20490;-88
2020/12/29 04:16:22;;;;;;;24.83;20.50;;;4.10;99.90;;;;;;5969995;23;20542;-88
2020/12/29 04:23:32;;;;;;;30.10;22.53;;;4.20;99.90;;;;;;5932370;23;20432;-88
2020/12/29 04:26:34;;;;;;;26.53;21.60;;;4.10;99.90;;;;;;5998552;23;20418;-88
2020/12/29 04:29:40;;;;;;;26.23;23.47;;;4.20;99.90;;;;;;6171090;23;20446;-88
2020/12/29 04:36:30;;;;;;;26.60;23.77;;;4.20;99.90;;;;;;6167243;23;20432;-89
2020/12/29 04:40:05;;;;;;;28.10;24.43;;;4.20;99.90;;;;;;6116684;23;20429;-88
2020/12/29 04:43:20;;;;;;;30.00;25.23;;;4.10;99.90;;;;;;6111809;23;20424;-88
2020/12/29 04:50:07;;;;;;;30.20;25.90;;;4.20;99.90;;;;;;6018759;23;20961;-88
2020/12/29 05:31:48;;;;;;;30.33;27.03;;;4.30;99.90;;;;;;5961428;23;20412;-89
2020/12/29 05:50:14;;;;;;;27.47;23.20;;;4.20;99.90;;;;;;5987452;23;20449;-88
2020/12/29 05:57:06;;;;;;;29.07;25.97;;;4.10;99.90;;;;;;5848982;24;20521;-89
2020/12/29 06:18:34;;;;;;;;;;;;;;;;;;;;;
2020/12/29 06:51:04;;;;;;;31.47;28.17;;;3.80;99.90;;;;;;5925096;23;20439;-87
2020/12/29 07:02:37;;;;;;;30.83;26.70;;;3.70;99.90;;;;;;5821658;24;20422;-87
2020/12/29 07:05:12;;;;;;;29.67;26.47;;;3.70;99.90;;;;;;5880063;24;20960;-87
2020/12/29 07:07:57;;;;;;;33.70;30.03;;;3.70;99.90;;;;;;5946744;24;20442;-87
2020/12/29 07:10:28;;;;;;;33.10;29.60;;;3.60;99.90;;;;;;5938049;24;20913;-86
2020/12/29 07:13:03;;;;;;;32.97;28.73;;;3.60;99.90;;;;;;5961840;24;20436;-86
2020/12/29 07:15:44;;;;;;;33.37;30.03;;;3.60;99.90;;;;;;5967281;24;20421;-88
2020/12/29 07:18:17;;;;;;;31.20;26.83;;;3.60;99.90;;;;;;5943043;24;20508;-88
2020/12/29 07:20:48;;;;;;;33.10;29.63;;;3.50;99.90;;;;;;5976737;23;20482;-87
2020/12/29 07:23:18;;;;;;;34.77;31.03;;;3.50;99.90;;;;;;6092716;23;20463;-87
2020/12/29 07:25:47;;;;;;;34.40;27.33;;;3.50;99.90;;;;;;6112563;23;20431;-88
2020/12/29 07:28:18;;;;;;;32.73;28.80;;;3.50;99.90;;;;;;6112746;23;20437;-88
2020/12/29 07:30:45;;;;;;;35.10;29.73;;;3.40;99.90;;;;;;6111899;23;20445;-88
2020/12/29 07:33:14;;;;;;;33.50;30.07;;;3.40;99.90;;;;;;6164036;23;20422;-88
2020/12/29 07:35:42;;;;;;;32.40;29.10;;;3.40;99.90;;;;;;6201950;23;20449;-88
2020/12/29 07:38:22;;;;;;;34.43;30.60;;;3.30;99.90;;;;;;6203267;23;20758;-88
2020/12/29 07:40:50;;;;;;;34.00;29.90;;;3.30;99.90;;;;;;6203147;23;20908;-88
2020/12/29 07:43:18;;;;;;;34.50;30.70;;;3.30;99.90;;;;;;6202038;23;20450;-87
2020/12/29 07:45:45;;;;;;;34.43;30.17;;;3.30;99.90;;;;;;6202520;23;20445;-88
2020/12/29 07:48:13;;;;;;;33.60;28.40;;;3.20;99.90;;;;;;6203495;23;20484;-88
2020/12/29 07:50:41;;;;;;;34.33;30.90;;;3.20;99.90;;;;;;6202801;23;20419;-88
2020/12/29 07:53:10;;;;;;;30.13;26.30;;;3.20;99.90;;;;;;6201777;23;20441;-88
2020/12/29 07:55:43;;;;;;;34.10;30.50;;;3.20;99.90;;;;;;6238595;23;20379;-88
2020/12/29 07:58:11;;;;;;;34.73;31.23;;;3.20;99.90;;;;;;6201564;23;20452;-88
2020/12/29 08:00:40;;;;;;;37.73;32.20;;;3.10;99.90;;;;;;6200885;23;20434;-88
2020/12/29 08:03:09;;;;;;;33.27;29.73;;;3.20;99.90;;;;;;6238155;23;20434;-88
2020/12/29 08:05:39;;;;;;;33.03;27.50;;;3.10;99.90;;;;;;6200184;23;20903;-88
2020/12/29 08:24:34;;;;;;;36.73;30.83;;;3.10;99.90;;;;;;5958624;23;20460;-85
2020/12/29 08:27:02;;;;;;;37.30;31.53;;;3.10;99.90;;;;;;6195606;23;20414;-85
2020/12/29 08:29:32;;;;;;;36.30;32.30;;;3.10;99.90;;;;;;6168116;23;20490;-85
2020/12/29 08:32:07;;;;;;;38.37;30.97;;;3.10;99.90;;;;;;6165639;23;20524;-85
2020/12/29 08:34:37;;;;;;;35.90;32.37;;;3.10;99.90;;;;;;6163895;23;20415;-85
2020/12/29 08:37:07;;;;;;;33.47;29.80;;;3.20;99.90;;;;;;6172943;23;20431;-85
2020/12/29 08:39:54;;;;;;;35.47;30.33;;;3.20;99.90;;;;;;6185024;23;20441;-85
2020/12/29 08:42:23;;;;;;;36.57;30.30;;;3.20;99.90;;;;;;6174242;23;20410;-85
2020/12/29 08:44:52;;;;;;;35.07;31.37;;;3.20;99.90;;;;;;6173237;23;20419;-85
2020/12/29 08:47:21;;;;;;;34.53;30.83;;;3.20;99.90;;;;;;6198353;23;20433;-85
2020/12/29 08:49:49;;;;;;;41.60;37.40;;;3.20;99.90;;;;;;6174794;23;20422;-85
2020/12/29 08:52:30;;;;;;;37.53;33.50;;;3.20;99.90;;;;;;6175084;23;20412;-85
2020/12/29 08:54:58;;;;;;;33.80;30.30;;;3.30;99.90;;;;;;6175443;23;20407;-85
2020/12/29 08:57:27;;;;;;;37.47;33.60;;;3.20;99.90;;;;;;6175450;23;20488;-85
2020/12/29 09:00:05;;;;;;;35.00;31.40;;;3.30;99.90;;;;;;6176201;23;20422;-85
2020/12/29 09:02:50;;;;;;;32.90;29.50;;;3.30;99.90;;;;;;6176210;23;20442;-85
2020/12/29 09:05:27;;;;;;;32.97;29.60;;;3.30;99.90;;;;;;6176926;23;20458;-85
2020/12/29 09:07:57;;;;;;;33.90;30.27;;;3.30;99.90;;;;;;6176675;23;20836;-85
2020/12/29 09:10:27;;;;;;;34.67;31.27;;;3.40;99.90;;;;;;6178573;23;20415;-85
2020/12/29 09:13:09;;;;;;;32.38;29.05;;;3.40;99.90;;;;;;6178134;23;20450;-85
2020/12/29 09:15:40;;;;;;;37.23;33.43;;;3.40;99.90;;;;;;6171589;23;20175;-85
2020/12/29 09:18:07;;;;;;;37.00;33.23;;;3.40;99.90;;;;;;6169734;23;20829;-85
2020/12/29 09:20:36;;;;;;;37.37;33.67;;;3.50;99.90;;;;;;6170000;23;20407;-85
2020/12/29 09:23:15;;;;;;;31.47;28.23;;;3.50;99.90;;;;;;6170140;23;20431;-84
2020/12/29 09:25:44;;;;;;;41.70;37.47;;;3.50;99.90;;;;;;6170646;23;20429;-83
2020/12/29 09:28:25;;;;;;;35.80;32.07;;;3.50;99.90;;;;;;6169621;23;20463;-85
2020/12/29 09:30:59;;;;;;;35.33;31.83;;;3.60;99.90;;;;;;6171037;23;20924;-85
2020/12/29 09:33:29;;;;;;;34.73;31.03;;;3.60;99.90;;;;;;6171607;23;20465;-85
2020/12/29 09:35:59;;;;;;;34.70;31.20;;;3.60;99.90;;;;;;6171195;23;20437;-85
2020/12/29 09:38:28;;;;;;;34.30;30.90;;;3.60;99.90;;;;;;6171628;23;20517;-84
2020/12/29 09:41:24;;;;;;;33.53;29.47;;;3.60;99.90;;;;;;6169193;23;20408;-84
2020/12/29 09:43:53;;;;;;;33.93;28.93;;;3.70;99.90;;;;;;6167876;23;20413;-84
2020/12/29 09:46:21;;;;;;;30.30;27.00;;;3.60;99.90;;;;;;6168530;23;20461;-84
2020/12/29 09:48:48;;;;;;;31.37;28.13;;;3.70;99.90;;;;;;6165960;23;20435;-84
2020/12/29 09:51:15;;;;;;;32.73;28.50;;;3.70;99.90;;;;;;6166130;23;20483;-85
2020/12/29 09:53:42;;;;;;;31.93;28.57;;;3.70;99.90;;;;;;6165002;23;20458;-85
2020/12/29 09:56:10;;;;;;;31.47;28.27;;;3.80;99.90;;;;;;6163113;23;20415;-85
2020/12/29 09:59:00;;;;;;;28.30;24.33;;;3.80;99.90;;;;;;6164324;23;20432;-84
2020/12/29 10:01:41;;;;;;;30.87;27.60;;;3.80;99.90;;;;;;6176225;23;20747;-85
2020/12/29 10:04:10;;;;;;;29.97;25.53;;;3.80;99.90;;;;;;6171329;23;20455;-85
2020/12/29 10:06:51;;;;;;;28.70;25.30;;;3.90;99.90;;;;;;6171315;23;20720;-85
2020/12/29 10:09:33;;;;;;;28.83;25.73;;;3.90;99.90;;;;;;6168549;23;20435;-85
2020/12/29 10:12:03;;;;;;;30.63;27.20;;;3.90;99.90;;;;;;6172125;23;20445;-85
2020/12/29 10:14:31;;;;;;;28.17;25.30;;;4.00;99.90;;;;;;6173031;23;20430;-84
2020/12/29 10:16:58;;;;;;;29.97;26.50;;;4.00;99.90;;;;;;6172636;23;20443;-85
2020/12/29 10:19:25;;;;;;;31.37;28.00;;;4.00;99.90;;;;;;6209729;23;20441;-85
2020/12/29 10:21:52;;;;;;;31.77;28.40;;;4.00;99.90;;;;;;6173112;23;20423;-85
2020/12/29 10:24:20;;;;;;;29.80;26.70;;;4.10;99.90;;;;;;6171000;23;20455;-84
2020/12/29 10:26:50;;;;;;;31.60;28.50;;;4.10;99.90;;;;;;6169038;23;20450;-85
2020/12/29 10:29:19;;;;;;;32.73;29.47;;;4.20;99.90;;;;;;6169263;23;20428;-85
2020/12/29 10:31:49;;;;;;;30.87;28.07;;;4.10;99.90;;;;;;6170184;23;20416;-85
2020/12/29 10:34:17;;;;;;;31.83;28.83;;;4.10;99.90;;;;;;6207015;23;20403;-85
2020/12/29 10:36:45;;;;;;;30.13;27.20;;;4.10;99.90;;;;;;6170185;23;20768;-85
2020/12/29 10:39:12;;;;;;;30.73;27.83;;;4.20;99.90;;;;;;6214315;23;20396;-85
2020/12/29 10:41:44;;;;;;;30.37;27.53;;;4.20;99.90;;;;;;6181061;23;20442;-84
2020/12/29 10:44:11;;;;;;;30.50;27.53;;;4.20;99.90;;;;;;6178096;23;20502;-84
2020/12/29 10:46:39;;;;;;;30.60;27.83;;;4.20;99.90;;;;;;6177608;23;20428;-85
2020/12/29 10:49:06;;;;;;;30.20;27.40;;;4.20;99.90;;;;;;6177673;23;20435;-84
2020/12/29 10:51:36;;;;;;;29.50;26.70;;;4.20;99.90;;;;;;6178242;23;20415;-84
2020/12/29 10:54:03;;;;;;;28.93;26.33;;;4.30;99.90;;;;;;6211134;23;20396;-85
2020/12/29 10:56:31;;;;;;;29.20;26.63;;;4.30;99.90;;;;;;6173185;23;20752;-85
2020/12/29 10:58:58;;;;;;;30.70;27.80;;;4.30;99.90;;;;;;6175769;23;20431;-85
2020/12/29 11:01:26;;;;;;;29.83;27.00;;;4.30;99.90;;;;;;6172747;23;20419;-85
2020/12/29 11:03:56;;;;;;;30.53;27.70;;;4.30;99.90;;;;;;6173949;23;20478;-85
2020/12/29 11:06:24;;;;;;;30.93;27.90;;;4.40;99.90;;;;;;6171639;23;20438;-84
2020/12/29 11:08:51;;;;;;;32.23;29.23;;;4.40;99.90;;;;;;6208195;23;20527;-85
2020/12/29 11:11:20;;;;;;;32.30;29.30;;;4.40;99.90;;;;;;6170999;23;20435;-85
2020/12/29 11:13:48;;;;;;;32.43;29.23;;;4.50;99.90;;;;;;6142231;23;20381;-85
2020/12/29 11:16:16;;;;;;;31.53;28.50;;;4.50;99.90;;;;;;6166144;23;20486;-85
2020/12/29 11:18:43;;;;;;;32.33;29.33;;;4.50;99.90;;;;;;6140573;23;20507;-85
2020/12/29 11:21:14;;;;;;;31.90;28.77;;;4.50;99.90;;;;;;6145007;23;20409;-85
2020/12/29 11:23:42;;;;;;;31.00;28.10;;;4.60;99.90;;;;;;6147546;23;20419;-85
2020/12/29 11:26:09;;;;;;;32.90;29.63;;;4.60;99.90;;;;;;6143457;23;20424;-85
2020/12/29 11:28:36;;;;;;;32.07;28.93;;;4.60;99.90;;;;;;6143679;23;20432;-85
2020/12/29 11:31:03;;;;;;;34.30;30.80;;;4.60;99.90;;;;;;6166897;23;20454;-85
2020/12/29 11:33:31;;;;;;;33.40;29.90;;;4.60;99.90;;;;;;6144390;23;20934;-85
2020/12/29 11:35:58;;;;;;;36.00;31.87;;;4.70;99.90;;;;;;6144640;23;20754;-85
2020/12/29 11:38:26;;;;;;;32.97;29.70;;;4.70;99.90;;;;;;6144099;23;20810;-85
2020/12/29 11:40:54;;;;;;;34.30;30.73;;;4.80;99.90;;;;;;6143182;23;20436;-85
2020/12/29 11:43:21;;;;;;;33.37;30.00;;;4.70;99.90;;;;;;6143959;23;20495;-85
2020/12/29 11:45:48;;;;;;;31.57;28.37;;;4.70;99.90;;;;;;6143182;23;20476;-85
2020/12/29 11:48:15;;;;;;;32.53;29.23;;;4.70;99.90;;;;;;6143555;23;20440;-85
2020/12/29 11:50:42;;;;;;;31.77;28.30;;;4.70;99.90;;;;;;6143762;23;20443;-85
2020/12/29 11:53:10;;;;;;;31.23;28.03;;;4.70;99.90;;;;;;6144104;23;20420;-85
2020/12/29 11:55:38;;;;;;;28.53;25.70;;;4.80;99.90;;;;;;6142498;23;20432;-85
2020/12/29 11:58:05;;;;;;;28.57;25.67;;;4.80;99.90;;;;;;6137604;23;20480;-85
2020/12/29 12:00:33;;;;;;;28.70;25.80;;;4.80;99.90;;;;;;6134012;23;20724;-85
2020/12/29 12:03:00;;;;;;;27.57;24.73;;;4.80;99.90;;;;;;6133863;23;20499;-85
2020/12/29 12:05:27;;;;;;;29.47;26.67;;;4.80;99.90;;;;;;6133362;23;20416;-85
2020/12/29 12:07:54;;;;;;;28.47;25.47;;;4.90;99.90;;;;;;6133621;23;20472;-85
2020/12/29 12:10:22;;;;;;;27.37;24.77;;;4.90;99.90;;;;;;6133043;23;20416;-85
2020/12/29 12:12:52;;;;;;;26.10;22.50;;;4.90;99.90;;;;;;6133268;23;20466;-85
2020/12/29 12:15:25;;;;;;;25.93;23.00;;;5.00;99.90;;;;;;6149827;23;20419;-85
2020/12/29 12:17:52;;;;;;;24.47;22.03;;;5.10;99.90;;;;;;6145504;23;20452;-85
2020/12/29 12:20:20;;;;;;;22.30;20.10;;;5.10;99.90;;;;;;6145542;23;20444;-86
2020/12/29 12:22:47;;;;;;;22.83;20.52;;;5.10;99.90;;;;;;6143291;23;20448;-85
2020/12/29 12:25:14;;;;;;;24.17;21.67;;;5.20;99.90;;;;;;6144193;23;20212;-85
2020/12/29 12:27:46;;;;;;;24.73;22.43;;;5.10;99.90;;;;;;6167416;23;20468;-86
2020/12/29 12:30:18;;;;;;;25.43;22.97;;;5.10;99.90;;;;;;6145273;23;20415;-86
2020/12/29 12:32:57;;;;;;;25.37;22.90;;;5.10;99.90;;;;;;6146350;23;20443;-86
2020/12/29 12:35:26;;;;;;;26.27;23.70;;;5.10;99.90;;;;;;6147425;23;20416;-85
2020/12/29 12:37:58;;;;;;;28.80;26.00;;;5.20;99.90;;;;;;6147650;23;20448;-86
2020/12/29 12:40:25;;;;;;;30.17;27.30;;;5.10;99.90;;;;;;6183773;23;20397;-85
2020/12/29 12:42:54;;;;;;;29.20;26.43;;;5.10;99.90;;;;;;6189343;23;20452;-85
2020/12/29 12:45:27;;;;;;;25.90;23.50;;;5.10;99.90;;;;;;6149509;23;20405;-85
2020/12/29 12:47:56;;;;;;;26.60;24.10;;;5.00;99.90;;;;;;6142923;23;20436;-85
2020/12/29 12:50:47;;;;;;;;;;;;;;;;;;;;;
2020/12/29 12:53:20;;;;;;;26.50;24.10;;;5.10;99.90;;;;;;6142642;23;20421;-85
2020/12/29 12:55:47;;;;;;;27.77;25.10;;;5.20;99.90;;;;;;6167924;23;20405;-85
2020/12/29 12:58:28;;;;;;;26.90;24.10;;;5.10;99.90;;;;;;6179233;23;20464;-85
2020/12/29 13:01:00;;;;;;;34.70;28.00;;;5.00;99.90;;;;;;6142731;23;20467;-85
2020/12/29 13:03:41;;;;;;;32.57;24.60;;;5.00;99.90;;;;;;6142484;23;20543;-85
2020/12/29 13:06:11;;;;;;;40.17;29.63;;;5.00;99.90;;;;;;6141565;23;20418;-85
2020/12/29 13:08:38;;;;;;;28.77;25.87;;;5.00;99.90;;;;;;6140209;23;20424;-85
2020/12/29 13:11:05;;;;;;;29.03;26.30;;;5.00;99.90;;;;;;6141722;23;20475;-84
2020/12/29 13:13:32;;;;;;;28.37;25.33;;;5.00;99.90;;;;;;6142397;23;20896;-84
2020/12/29 13:16:00;;;;;;;27.47;24.77;;;5.00;99.90;;;;;;6142080;23;20437;-85
2020/12/29 13:18:28;;;;;;;27.93;25.30;;;5.00;99.90;;;;;;6141272;23;20777;-86
2020/12/29 13:20:55;;;;;;;27.07;24.33;;;5.00;99.90;;;;;;6140221;23;20423;-85
2020/12/29 13:23:22;;;;;;;29.73;26.83;;;5.00;99.90;;;;;;6142200;23;20428;-85
2020/12/29 13:25:49;;;;;;;29.77;26.00;;;5.00;99.90;;;;;;6142339;23;20408;-85
2020/12/29 13:28:16;;;;;;;31.10;27.90;;;5.00;99.90;;;;;;6168757;23;20444;-85
2020/12/29 13:30:44;;;;;;;29.47;26.50;;;4.90;99.90;;;;;;6180704;23;20400;-85
2020/12/29 13:33:12;;;;;;;30.90;27.57;;;5.00;99.90;;;;;;6143629;23;20420;-85
2020/12/29 13:35:39;;;;;;;32.77;29.40;;;4.90;99.90;;;;;;6145076;23;20443;-85
2020/12/29 13:38:06;;;;;;;32.00;28.57;;;4.90;99.90;;;;;;6142917;23;20456;-85
2020/12/29 13:40:33;;;;;;;29.83;26.60;;;4.90;99.90;;;;;;6143771;23;20416;-85
2020/12/29 13:43:01;;;;;;;32.40;28.77;;;4.90;99.90;;;;;;6145985;23;20471;-86
2020/12/29 13:45:28;;;;;;;32.70;29.40;;;4.90;99.90;;;;;;6144782;23;20755;-85
2020/12/29 13:47:55;;;;;;;34.50;31.07;;;4.80;99.90;;;;;;6144425;23;20436;-85
2020/12/29 13:50:23;;;;;;;35.37;29.90;;;4.80;99.90;;;;;;6181607;23;20411;-85
2020/12/29 13:52:51;;;;;;;35.50;31.67;;;4.80;99.90;;;;;;6183491;23;20385;-85
2020/12/29 13:55:18;;;;;;;33.30;29.70;;;4.90;99.90;;;;;;6147867;23;20420;-85
2020/12/29 13:57:45;;;;;;;31.00;27.80;;;4.80;99.90;;;;;;6147608;23;20923;-85
2020/12/29 14:00:12;;;;;;;30.50;27.30;;;4.80;99.90;;;;;;6147823;23;20416;-85
2020/12/29 14:02:42;;;;;;;27.80;24.90;;;4.80;99.90;;;;;;6177964;23;20411;-85
2020/12/29 14:05:09;;;;;;;26.30;22.73;;;4.80;99.90;;;;;;6139449;23;20416;-86
2020/12/29 14:07:37;;;;;;;24.40;21.93;;;4.80;99.90;;;;;;6136845;23;20424;-85
2020/12/29 14:10:05;;;;;;;22.30;19.00;;;4.80;99.90;;;;;;6136792;23;20417;-85
2020/12/29 14:12:32;;;;;;;18.30;16.40;;;4.70;99.90;;;;;;6139056;23;20419;-85
2020/12/29 14:14:59;;;;;;;19.03;17.03;;;4.70;99.90;;;;;;6136243;23;20447;-85
2020/12/29 14:17:27;;;;;;;15.87;13.27;;;4.70;99.90;;;;;;6139538;23;20463;-83
2020/12/29 14:19:54;;;;;;;15.03;11.47;;;4.70;99.90;;;;;;6139137;23;20413;-85
2020/12/29 14:22:21;;;;;;;13.00;10.97;;;4.70;99.90;;;;;;6140930;23;20431;-85
2020/12/29 14:24:49;;;;;;;14.50;11.40;;;4.60;99.90;;;;;;6139706;23;20510;-85
2020/12/29 14:27:16;;;;;;;15.63;12.30;;;4.70;99.90;;;;;;6175467;23;20454;-85
2020/12/29 14:29:44;;;;;;;13.70;11.20;;;4.60;99.90;;;;;;6141021;23;20444;-85
2020/12/29 14:32:11;;;;;;;14.13;11.97;;;4.70;99.90;;;;;;6141369;23;20427;-86
2020/12/29 14:34:38;;;;;;;12.50;10.60;;;4.60;99.90;;;;;;6143776;23;20413;-85
2020/12/29 14:37:05;;;;;;;12.20;10.90;;;4.60;99.90;;;;;;6142863;23;20424;-85
2020/12/29 14:39:32;;;;;;;16.63;11.70;;;4.60;99.90;;;;;;6141326;23;20503;-85
2020/12/29 14:42:00;;;;;;;13.67;12.07;;;4.60;99.90;;;;;;6142608;23;20412;-85
2020/12/29 14:44:29;;;;;;;14.70;11.83;;;4.60;99.90;;;;;;6143257;23;20818;-85
2020/12/29 14:47:01;;;;;;;13.50;11.40;;;4.50;99.90;;;;;;6144265;23;20426;-85
2020/12/29 14:49:28;;;;;;;13.33;11.93;;;4.60;99.90;;;;;;6179211;23;20451;-85
2020/12/29 14:51:59;;;;;;;13.60;10.87;;;4.50;99.90;;;;;;6179025;23;20397;-86
2020/12/29 14:54:28;;;;;;;13.13;11.00;;;4.60;99.90;;;;;;6144180;23;20414;-85
2020/12/29 14:56:59;;;;;;;17.53;12.80;;;4.50;99.90;;;;;;6146928;23;20432;-86
2020/12/29 14:59:27;;;;;;;16.25;13.25;;;4.50;99.90;;;;;;6148291;23;20420;-85
2020/12/29 15:01:54;;;;;;;15.47;12.37;;;4.70;99.90;;;;;;6183437;23;20165;-86
2020/12/29 15:04:22;;;;;;;15.60;12.80;;;4.70;99.90;;;;;;6142805;23;20451;-86
2020/12/29 15:06:49;;;;;;;18.87;14.20;;;4.60;99.90;;;;;;6142859;23;20423;-85
2020/12/29 15:09:17;;;;;;;19.47;14.30;;;4.50;99.90;;;;;;6141100;23;20471;-86
2020/12/29 15:11:44;;;;;;;18.23;13.40;;;4.60;99.90;;;;;;6140768;23;20416;-86
2020/12/29 15:14:11;;;;;;;14.77;13.10;;;4.60;99.90;;;;;;6142856;23;20432;-86
2020/12/29 15:16:40;;;;;;;16.10;13.70;;;4.60;99.90;;;;;;6144395;23;20498;-86
2020/12/29 15:19:07;;;;;;;18.07;14.50;;;4.50;99.90;;;;;;6142820;23;20455;-85
2020/12/29 15:21:35;;;;;;;15.93;13.00;;;4.50;99.90;;;;;;6143061;23;20400;-86
2020/12/29 15:24:02;;;;;;;20.57;15.93;;;4.50;99.90;;;;;;6144300;23;20444;-86
2020/12/29 15:26:31;;;;;;;16.70;13.17;;;4.50;99.90;;;;;;6146150;23;20409;-86
2020/12/29 15:28:58;;;;;;;14.87;12.53;;;4.50;99.90;;;;;;6152325;23;20527;-86
2020/12/29 15:31:26;;;;;;;16.60;12.80;;;4.50;99.90;;;;;;6150736;23;20420;-86
2020/12/29 15:33:54;;;;;;;13.47;11.93;;;4.40;99.90;;;;;;6151888;23;20416;-86
2020/12/29 15:36:23;;;;;;;13.67;11.10;;;4.40;99.90;;;;;;6146323;23;20416;-86
2020/12/29 15:38:50;;;;;;;14.73;12.07;;;4.40;99.90;;;;;;6149606;23;20450;-85
2020/12/29 15:41:18;;;;;;;14.40;11.17;;;4.50;99.90;;;;;;6150077;23;20404;-85
2020/12/29 15:43:46;;;;;;;12.63;11.13;;;4.40;99.90;;;;;;6149531;23;20404;-86
2020/12/29 15:46:14;;;;;;;13.53;9.63;;;4.30;99.90;;;;;;6148788;23;20494;-85
2020/12/29 15:48:44;;;;;;;12.50;10.93;;;4.30;99.90;;;;;;6145358;23;20435;-86
2020/12/29 15:51:18;;;;;;;14.60;11.50;;;4.30;99.90;;;;;;6145358;23;20440;-86
2020/12/29 15:53:46;;;;;;;13.43;11.07;;;4.30;99.90;;;;;;6136860;23;20471;-85
2020/12/29 15:56:18;;;;;;;13.57;10.07;;;4.30;99.90;;;;;;6179598;23;20389;-86
2020/12/29 15:58:46;;;;;;;13.70;10.17;;;4.30;99.90;;;;;;6146163;23;20510;-86
2020/12/29 16:01:14;;;;;;;14.00;11.30;;;4.30;99.90;;;;;;6145606;23;20423;-86
2020/12/29 16:03:41;;;;;;;11.50;9.20;;;4.20;99.90;;;;;;6146328;23;20420;-86
2020/12/29 16:06:09;;;;;;;12.90;8.70;;;4.30;99.90;;;;;;6146769;23;20435;-86
2020/12/29 16:08:38;;;;;;;9.60;8.47;;;4.20;99.90;;;;;;6145148;23;20475;-86
2020/12/29 16:11:05;;;;;;;7.60;6.83;;;4.20;99.90;;;;;;6144551;23;20440;-86
2020/12/29 16:13:35;;;;;;;7.83;6.23;;;4.20;99.90;;;;;;6179547;23;20384;-86
2020/12/29 16:16:03;;;;;;;8.50;7.30;;;4.20;99.90;;;;;;6146450;23;20431;-86
2020/12/29 16:18:30;;;;;;;7.77;6.47;;;4.10;99.90;;;;;;6146145;23;20440;-87
2020/12/29 16:20:58;;;;;;;6.87;6.17;;;4.10;99.90;;;;;;6144464;23;20416;-86
2020/12/29 16:23:26;;;;;;;6.23;5.60;;;4.10;99.90;;;;;;6145632;23;20413;-86
2020/12/29 16:25:54;;;;;;;5.83;4.43;;;4.00;99.90;;;;;;6142361;23;20427;-86
2020/12/29 16:28:22;;;;;;;6.67;4.70;;;4.00;99.90;;;;;;6138407;23;20531;-86
2020/12/29 16:30:49;;;;;;;5.63;4.00;;;4.10;99.90;;;;;;6139649;23;20412;-86
2020/12/29 16:33:23;;;;;;;4.63;4.23;;;4.00;99.90;;;;;;6140960;23;20431;-86
2020/12/29 16:35:50;;;;;;;3.80;3.50;;;4.00;99.90;;;;;;6176201;23;20395;-86
2020/12/29 16:38:17;;;;;;;4.80;3.97;;;4.00;99.90;;;;;;6139669;23;20448;-86
2020/12/29 16:40:45;;;;;;;5.50;5.00;;;3.90;99.90;;;;;;6138132;23;20945;-86
2020/12/29 16:43:13;;;;;;;5.70;5.20;;;3.90;99.90;;;;;;6174369;23;20404;-86
2020/12/29 16:45:40;;;;;;;7.13;6.53;;;3.90;99.90;;;;;;6137727;23;20426;-87
2020/12/29 16:48:08;;;;;;;9.00;8.20;;;3.80;99.90;;;;;;6135111;23;20908;-86
2020/12/29 16:50:35;;;;;;;7.20;6.50;;;3.80;99.90;;;;;;6136419;23;20405;-86
2020/12/29 16:53:04;;;;;;;7.00;6.40;;;3.70;99.90;;;;;;6138315;23;20428;-86
2020/12/29 16:55:34;;;;;;;6.50;6.00;;;3.90;99.90;;;;;;6134089;23;20440;-86
2020/12/29 16:58:01;;;;;;;6.53;6.03;;;3.70;99.90;;;;;;6133839;23;20444;-86
2020/12/29 17:00:30;;;;;;;6.47;5.97;;;3.70;99.90;;;;;;6135329;23;20416;-86
2020/12/29 17:02:57;;;;;;;5.33;4.93;;;3.70;99.90;;;;;;6143668;23;21025;-81
2020/12/29 17:05:28;;;;;;;5.50;5.10;;;3.60;99.90;;;;;;6134385;23;20420;-81
2020/12/29 17:07:55;;;;;;;5.17;4.77;;;3.60;99.90;;;;;;6128962;23;20515;-81
2020/12/29 17:10:23;;;;;;;5.93;5.43;;;3.60;99.90;;;;;;6104692;23;20898;-81
2020/12/29 17:12:50;;;;;;;5.97;5.47;;;3.60;99.90;;;;;;6105317;23;20420;-81
2020/12/29 17:15:17;;;;;;;4.77;4.33;;;3.60;99.90;;;;;;6128755;23;20511;-82
2020/12/29 17:17:45;;;;;;;4.77;4.37;;;3.50;99.90;;;;;;6129681;23;20539;-82
2020/12/29 17:20:12;;;;;;;5.17;4.67;;;3.50;99.90;;;;;;6104477;23;20424;-83
2020/12/29 17:22:40;;;;;;;4.63;4.23;;;3.50;99.90;;;;;;6127976;23;20425;-83
2020/12/29 17:25:07;;;;;;;4.13;3.83;;;3.50;99.90;;;;;;6140340;23;20419;-81
2020/12/29 17:27:35;;;;;;;4.70;4.33;;;3.40;99.90;;;;;;6104888;23;20424;-82
2020/12/29 17:30:03;;;;;;;4.33;4.03;;;3.40;99.90;;;;;;6104485;23;20420;-81
2020/12/29 17:32:30;;;;;;;4.13;3.83;;;3.40;99.90;;;;;;6104245;23;20419;-82
2020/12/29 17:34:59;;;;;;;4.00;3.70;;;3.40;99.90;;;;;;6129013;23;20410;-83
2020/12/29 17:37:27;;;;;;;4.50;4.10;;;3.40;99.90;;;;;;6104212;23;20449;-82
2020/12/29 17:39:54;;;;;;;4.40;4.00;;;3.30;99.90;;;;;;6129570;23;20417;-82
2020/12/29 17:42:21;;;;;;;4.80;4.40;;;3.40;99.90;;;;;;6104107;23;20476;-82
2020/12/29 17:44:49;;;;;;;4.80;4.40;;;3.30;99.90;;;;;;6128921;23;20413;-83
2020/12/29 17:47:16;;;;;;;5.23;4.73;;;3.40;99.90;;;;;;6104701;23;20904;-82
2020/12/29 17:49:43;;;;;;;5.77;5.27;;;3.30;99.90;;;;;;6104397;23;20927;-81
2020/12/29 17:52:11;;;;;;;6.20;5.60;;;3.20;99.90;;;;;;6102190;23;20445;-81
2020/12/29 17:54:38;;;;;;;6.43;5.83;;;3.40;99.90;;;;;;6103604;23;20181;-82
2020/12/29 17:57:05;;;;;;;6.70;6.10;;;3.30;99.90;;;;;;6132623;23;20421;-82
2020/12/29 17:59:33;;;;;;;7.57;6.87;;;3.30;99.90;;;;;;6104289;23;20438;-83
2020/12/29 18:02:00;;;;;;;8.87;8.03;;;3.30;99.90;;;;;;6104332;23;20421;-81
2020/12/29 18:04:28;;;;;;;7.93;6.90;;;3.30;99.90;;;;;;6129570;23;20425;-81
2020/12/29 18:06:55;;;;;;;9.63;8.63;;;3.20;99.90;;;;;;6104095;23;20447;-82
2020/12/29 18:09:23;;;;;;;8.90;8.10;;;3.20;99.90;;;;;;6103793;23;20816;-82
2020/12/29 18:11:50;;;;;;;7.97;7.10;;;3.20;99.90;;;;;;6140373;23;20468;-82
2020/12/29 18:14:17;;;;;;;7.87;7.10;;;3.20;99.90;;;;;;6140542;23;20410;-82
2020/12/29 18:16:51;;;;;;;9.40;8.53;;;3.20;99.90;;;;;;6104885;23;20503;-82
2020/12/29 18:19:19;;;;;;;9.63;8.63;;;3.20;99.90;;;;;;6104463;23;20527;-83
2020/12/29 18:21:49;;;;;;;9.10;8.17;;;3.10;99.90;;;;;;6129280;23;20443;-82
2020/12/29 18:24:16;;;;;;;9.00;8.10;;;3.20;99.90;;;;;;6130143;23;20422;-82
2020/12/29 18:26:44;;;;;;;9.80;8.80;;;3.20;99.90;;;;;;6140791;23;20413;-83
2020/12/29 18:29:12;;;;;;;10.97;9.40;;;3.20;99.90;;;;;;6112192;23;20499;-82
2020/12/29 18:31:40;;;;;;;9.57;8.67;;;3.10;99.90;;;;;;6104050;23;20472;-82
2020/12/29 18:34:07;;;;;;;10.90;9.80;;;3.20;99.90;;;;;;6104568;23;20713;-82
2020/12/29 18:36:35;;;;;;;11.17;9.97;;;3.10;99.90;;;;;;6104036;23;20423;-82
2020/12/29 18:39:02;;;;;;;12.37;11.07;;;3.20;99.90;;;;;;6129052;23;20751;-82
2020/12/29 18:41:29;;;;;;;12.53;11.23;;;3.20;99.90;;;;;;6129145;23;20409;-83
2020/12/29 18:44:01;;;;;;;12.40;11.00;;;3.10;99.90;;;;;;6103881;23;20449;-82
2020/12/29 18:46:29;;;;;;;13.37;11.97;;;3.20;99.90;;;;;;6103293;23;20409;-82
2020/12/29 18:48:56;;;;;;;12.67;11.37;;;3.20;99.90;;;;;;6127877;23;20443;-82